Flight Track Log - Related Links

Times and Time Zones

All times are in EDT time to prevent confusion due to time zone crossing. See the UAL495 flight status page for this flight to view local times or setup timezone preferences in your user account.

Time Position Orientation Groundspeed Altitude Reporting Facility
EDT Latitude Longitude Course Direction KTS MPH feet Rate Location/Type
Thu 08:53:44 AM 33.9253 -118.4525 90° East 198 228 2,100  Level Los Center
Thu 08:54:45 AM 33.8697 -118.4853 206° Southwest 240 276 4,700 2,430 Climbing Los Center
Thu 08:55:45 AM 33.8036 -118.4986 190° South 276 318 7,000 2,826 Climbing Los Center
Thu 08:56:00 AM 33.6982 -118.5352 134° Southeast  Level FlightAware
Thu 08:56:46 AM 33.7261 -118.5142 189° South 286 329 10,400  Level Los Center
Thu 08:57:00 AM 33.6617 -118.4041 116° Southeast  Level FlightAware
Thu 08:57:46 AM 33.6703 -118.4200 125° Southeast 348 400 11,500  Level Los Center
Thu 08:58:00 AM 33.6334 -118.2703 90° East  Level FlightAware
Thu 08:58:47 AM 33.7100 -118.3039 68° East 394 453 13,400  Level Los Center
Thu 08:59:47 AM 33.7503 -118.1778 69° East 414 476 15,800 2,231 Climbing Los Center
Thu 09:00:48 AM 33.7978 -118.0478 66° East 428 493 17,900 2,033 Climbing Los Center
Thu 09:01:48 AM 33.8917 -117.9564 39° Northeast 437 503 19,900 1,835 Climbing Los Center
Thu 09:02:49 AM 33.9914 -117.8672 37° Northeast 446 513 21,600 1,636 Climbing Los Center
Thu 09:03:49 AM 34.0942 -117.7728 37° Northeast 463 533 23,200 1,636 Climbing Los Center
Thu 09:04:50 AM 34.1839 -117.6531 48° Northeast 481 554 24,900 1,587 Climbing Los Center
Thu 09:05:50 AM 34.2764 -117.5356 46° Northeast 484 557 26,400 1,736 Climbing Los Center
Thu 09:06:51 AM 34.3883 -117.3917 47° Northeast 489 563 28,400 1,686 Climbing Los Center
Thu 09:07:51 AM 34.4736 -117.2819 47° Northeast 486 559 29,800 1,438 Climbing Los Center
Thu 09:08:52 AM 34.5644 -117.1633 47° Northeast 485 558 31,300 1,328 Climbing Los Center
Thu 09:09:53 AM 34.6569 -117.0469 46° Northeast 484 557 32,500 843 Climbing Los Center
Thu 09:10:53 AM 34.7492 -116.9303 46° Northeast 483 556 33,000 226 Climbing Los Center
Thu 09:12:06 AM 34.8397 -116.8122 47° Northeast 480 552 33,000  Level Los Center
Thu 09:13:07 AM 34.9483 -116.6706 47° Northeast 477 549 33,000  Level Los Center
Thu 09:14:08 AM 35.0383 -116.5525 47° Northeast 478 550 33,000  Level Los Center
Thu 09:15:08 AM 35.1275 -116.4347 47° Northeast 475 547 33,000  Level Los Center
Thu 09:16:33 AM 35.2572 -116.2650 47° Northeast 479 551 33,000 329 Level Los Center
Thu 09:17:34 AM 35.3614 -116.1264 47° Northeast 475 547 33,800 934 Climbing Los Center
Thu 09:18:35 AM 35.4489 -116.0042 49° Northeast 477 549 34,900 590 Climbing Los Center
Thu 09:19:36 AM 35.5167 -115.8553 61° Northeast 480 552 35,000 49 Climbing Los Center
Thu 09:20:37 AM 35.5756 -115.7086 64° Northeast 481 554 35,000  Level Los Center
Thu 09:21:38 AM 35.6347 -115.5633 63° Northeast 480 552 35,000  Level Los Center
Thu 09:22:39 AM 35.6792 -115.4433 65° Northeast 483 556 35,000  Level Los Center
Thu 09:23:40 AM 35.7500 -115.2672 64° Northeast 482 555 35,000  Level Los Center
Thu 09:24:41 AM 35.8067 -115.1242 64° Northeast 470 541 35,000  Level Los Center
Thu 09:25:42 AM 35.8639 -114.9778 64° Northeast 476 548 35,000  Level Los Center
Thu 09:26:43 AM 35.9203 -114.8331 64° Northeast 473 544 35,000  Level Los Center
Thu 09:27:45 AM 35.9900 -114.6564 64° Northeast 478 550 35,000  Level Los Center
Thu 09:28:46 AM 36.0475 -114.5119 64° Northeast 475 547 35,000  Level Los Center
Thu 09:29:47 AM 36.1044 -114.3664 64° Northeast 473 544 35,000  Level Los Center
Thu 09:30:48 AM 36.1611 -114.2200 64° Northeast 473 544 35,000  Level Los Center
Thu 09:31:50 AM 36.2161 -114.0747 65° Northeast 470 541 35,000  Level Los Center
Thu 09:32:51 AM 36.2719 -113.9281 65° Northeast 471 542 35,000  Level Los Center
Thu 09:33:52 AM 36.3272 -113.7814 65° Northeast 471 542 35,000  Level Los Center
Thu 09:34:53 AM 36.3806 -113.6336 66° East 471 542 35,000  Level Los Center
Thu 09:36:07 AM 36.4347 -113.4881 65° Northeast 467 537 35,000  Level Los Center
Thu 09:37:08 AM 36.5092 -113.2869 65° Northeast 467 537 35,000  Level Los Center
Thu 09:38:10 AM 36.5633 -113.1408 65° Northeast 468 539 35,000  Level Los Center
Thu 09:39:23 AM 36.6178 -112.9944 65° Northeast 468 539 35,000  Level Los Center
Thu 09:40:25 AM 36.6833 -112.8208 65° Northeast 466 536 35,000  Level Los Center
Thu 09:41:26 AM 36.7358 -112.6750 66° East 465 535 35,000  Level Los Center
Thu 09:42:28 AM 36.7911 -112.5294 65° Northeast 466 536 35,000  Level Los Center
Thu 09:43:29 AM 36.8558 -112.3561 65° Northeast 463 533 35,000  Level Los Center
Thu 09:44:31 AM 36.9081 -112.2114 66° East 462 532 35,000  Level Los Center
Thu 09:45:35 AM 36.9606 -112.0669 66° East 461 531 35,000  Level Denver Center
Thu 09:46:36 AM 37.0128 -111.9228 66° East 460 529 35,000  Level Denver Center
Thu 09:47:37 AM 37.0633 -111.7806 66° East 453 521 35,000  Level Denver Center
Thu 09:48:39 AM 37.1136 -111.6397 66° East 448 516 35,000  Level Denver Center
Thu 09:49:40 AM 37.1719 -111.4717 66° East 443 510 35,000  Level Denver Center
Thu 09:50:41 AM 37.2203 -111.3317 67° East 441 507 35,000  Level Denver Center
Thu 09:51:42 AM 37.2697 -111.1919 66° East 440 506 35,000  Level Denver Center
Thu 09:52:44 AM 37.3181 -111.0528 66° East 437 503 35,000  Level Denver Center
Thu 09:53:45 AM 37.3669 -110.9147 66° East 434 499 35,000  Level Denver Center
Thu 09:54:46 AM 37.4158 -110.7767 66° East 434 499 35,000  Level Denver Center
Thu 09:55:47 AM 37.4542 -110.6667 66° East 432 497 35,000  Level Denver Center
Thu 09:56:49 AM 37.5172 -110.4822 67° East 432 497 35,000  Level Denver Center
Thu 09:57:50 AM 37.5617 -110.3500 67° East 429 494 35,000  Level Denver Center
Thu 09:58:52 AM 37.6067 -110.2175 67° East 429 494 35,000  Level Denver Center
Thu 09:59:53 AM 37.6589 -110.0628 67° East 429 494 35,000  Level Denver Center
Thu 10:00:54 AM 37.7031 -109.9319 67° East 426 490 35,000  Level Denver Center
Thu 10:01:56 AM 37.7542 -109.7794 67° East 422 486 35,000  Level Denver Center
Thu 10:02:57 AM 37.7967 -109.6483 68° East 420 483 35,000  Level Denver Center
Thu 10:03:58 AM 37.8397 -109.5183 67° East 420 483 35,000  Level Denver Center
Thu 10:05:00 AM 37.8900 -109.3656 67° East 419 482 35,000  Level Denver Center
Thu 10:06:01 AM 37.9325 -109.2336 68° East 421 484 35,000  Level Denver Center
Thu 10:07:02 AM 37.9839 -109.0803 67° East 423 487 35,000  Level Denver Center
Thu 10:08:04 AM 38.0261 -108.9489 68° East 422 486 35,000  Level Denver Center
Thu 10:09:05 AM 38.0706 -108.8056 68° East 431 496 35,000  Level Denver Center
Thu 10:10:07 AM 38.1133 -108.6736 68° East 426 490 35,000  Level Denver Center
Thu 10:11:08 AM 38.1625 -108.5197 68° East 423 487 35,000  Level Denver Center
Thu 10:12:10 AM 38.2042 -108.3864 68° East 423 487 35,000  Level Denver Center
Thu 10:13:11 AM 38.2525 -108.2319 68° East 421 484 35,000  Level Denver Center
Thu 10:14:13 AM 38.2942 -108.0992 68° East 423 487 35,000  Level Denver Center
Thu 10:15:14 AM 38.3433 -107.9433 68° East 423 487 35,000  Level Denver Center
Thu 10:16:16 AM 38.3842 -107.8106 69° East 423 487 35,000  Level Denver Center
Thu 10:17:17 AM 38.4264 -107.6758 68° East 426 490 35,000  Level Denver Center
Thu 10:18:19 AM 38.4811 -107.5244 65° Northeast 422 486 35,000  Level Denver Center
Thu 10:19:21 AM 38.5361 -107.4019 60° Northeast 417 480 35,000  Level Denver Center
Thu 10:20:22 AM 38.6011 -107.2572 60° Northeast 420 483 35,000  Level Denver Center
Thu 10:21:24 AM 38.6594 -107.1264 60° Northeast 422 486 35,000  Level Denver Center
Thu 10:22:25 AM 38.7172 -106.9975 60° Northeast 420 483 35,000  Level Denver Center
Thu 10:23:27 AM 38.7753 -106.8644 61° Northeast 427 491 35,000  Level Denver Center
Thu 10:24:29 AM 38.8336 -106.7356 60° Northeast 424 488 35,000 -927 Level Denver Center
Thu 10:25:30 AM 38.8981 -106.5942 60° Northeast 418 481 33,100 -1,366 Descending Denver Center
Thu 10:26:32 AM 38.9583 -106.4658 59° Northeast 430 495 32,200 -1,935 Descending Denver Center
Thu 10:27:34 AM 39.0258 -106.3197 59° Northeast 426 490 29,100 -2,226 Descending Denver Center
Thu 10:28:36 AM 39.0806 -106.1953 60° Northeast 419 482 27,600 -1,122 Descending Denver Center
Thu 10:29:37 AM 39.1414 -106.0619 60° Northeast 411 473 26,800 -1,561 Descending Denver Center
Thu 10:30:39 AM 39.1889 -105.9492 61° Northeast 367 422 24,400 -2,177 Descending Denver Center
Thu 10:31:41 AM 39.2394 -105.8333 61° Northeast 370 426 22,300 -1,805 Descending Denver Center
Thu 10:32:42 AM 39.2781 -105.7444 61° Northeast 360 414 20,700 -1,645 Descending Denver Center
Thu 10:33:45 AM 39.3356 -105.6136 60° Northeast 352 405 18,900 -1,403 Descending Denver Center
Thu 10:34:46 AM 39.3811 -105.4958 63° Northeast 321 369 17,800 -1,317 Descending Denver Center
Thu 10:35:48 AM 39.3847 -105.3900 87° East 303 349 16,200 -1,500 Descending Denver Center
Thu 10:36:50 AM 39.3956 -105.2769 83° East 296 341 14,700 -1,452 Descending Denver Center
Thu 10:37:52 AM 39.4025 -105.1747 85° East 288 331 13,200 -823 Descending Denver Center
Thu 10:38:54 AM 39.3997 -105.0703 92° East 270 311 13,000 -97 Descending Denver Center
Thu 10:39:56 AM 39.3869 -104.9856 101° East 243 280 13,000 -97 Level Denver Center
Thu 10:40:58 AM 39.3778 -104.9019 98° East 237 273 12,800 -532 Descending Denver Center
Thu 10:42:00 AM 39.3939 -104.8350 73° East 232 267 11,900 -1,161 Descending Denver Center
Thu 10:43:02 AM 39.4158 -104.7417 73° East 223 257 10,400 -919 Descending Denver Center
Thu 10:44:04 AM 39.4667 -104.6908 38° Northeast 222 255 10,000 -194 Descending Denver Center
Thu 10:45:06 AM 39.5253 -104.6631 20° North 227 261 10,000 -290 Level Denver Center
Thu 10:46:08 AM 39.5939 -104.6639 359° North 229 264 9,400 -480 Descending Denver Center
Thu 10:47:11 AM 39.6528 -104.6631 North 215 247 9,000 -774 Descending Denver Center
Thu 10:48:12 AM 39.7075 -104.6625 360° North 187 215 7,800 -1,180 Descending Denver Center

Login

Don't have an account? Register now (free) for customized features, flight alerts, and more!